Time;durP1;ratioP1;P1;durP2;ratioP2;P2;SDS_P1;SDS_P2;PMS_P1;PMS_P2;Temp;Humidity;BMP_temperature;BMP_pressure;BME280_temperature;BME280_humidity;BME280_pressure;Samples;Min_cycle;Max_cycle;Signal;HPM_P1;HPM_P2
2023/01/26 00:01:26;;;;;;;;;;;5.50;99.90;;;;;;5074733;28;20348;-62
2023/01/26 00:03:52;;;;;;;;;;;5.50;99.90;;;;;;5076722;28;20293;-68
2023/01/26 00:06:18;;;;;;;;;;;5.50;99.90;;;;;;5078730;28;19912;-64
2023/01/26 00:08:45;;;;;;;;;;;5.50;99.90;;;;;;5074736;28;19916;-63
2023/01/26 00:11:13;;;;;;;;;;;5.50;99.90;;;;;;5077596;28;19916;-63
2023/01/26 00:13:39;;;;;;;;;;;5.50;99.90;;;;;;5077484;28;19913;-64
2023/01/26 00:16:07;;;;;;;;;;;5.50;99.90;;;;;;5076307;28;20368;-65
2023/01/26 00:18:33;;;;;;;;;;;5.50;99.90;;;;;;5076527;28;19918;-63
2023/01/26 00:20:59;;;;;;;;;;;5.50;99.90;;;;;;5082303;28;20364;-67
2023/01/26 00:23:25;;;;;;;;;;;5.40;99.90;;;;;;5075836;28;19954;-64
2023/01/26 00:25:51;;;;;;;;;;;5.40;99.90;;;;;;5076450;28;19920;-62
2023/01/26 00:28:17;;;;;;;;;;;5.50;99.90;;;;;;5077009;28;19960;-65
2023/01/26 00:30:42;;;;;;;;;;;5.50;99.90;;;;;;5088908;28;20334;-63
2023/01/26 00:33:08;;;;;;;;;;;5.50;99.90;;;;;;5088122;28;19932;-64
2023/01/26 00:35:34;;;;;;;;;;;5.50;99.90;;;;;;5084147;28;19945;-60
2023/01/26 00:37:59;;;;;;;;;;;5.50;99.90;;;;;;5090722;28;20389;-62
2023/01/26 00:40:25;;;;;;;;;;;5.50;99.90;;;;;;5084372;28;20061;-64
2023/01/26 00:42:53;;;;;;;;;;;5.50;99.90;;;;;;5087962;28;19920;-63
2023/01/26 00:45:21;;;;;;;;;;;5.40;99.90;;;;;;5090131;28;19908;-61
2023/01/26 00:47:47;;;;;;;;;;;5.50;99.90;;;;;;5090363;28;19915;-65
2023/01/26 00:50:13;;;;;;;;;;;5.50;99.90;;;;;;5088065;28;19912;-58
2023/01/26 00:52:38;;;;;;;;;;;5.50;99.90;;;;;;5070874;28;19908;-59
2023/01/26 00:55:04;;;;;;;;;;;5.50;99.90;;;;;;5069366;28;20032;-63
2023/01/26 00:57:30;;;;;;;;;;;5.50;99.90;;;;;;5070673;28;20014;-63
2023/01/26 00:59:56;;;;;;;;;;;5.50;99.90;;;;;;5076339;28;19912;-66
2023/01/26 01:02:21;;;;;;;;;;;5.50;99.90;;;;;;5077302;28;19922;-66
2023/01/26 01:04:47;;;;;;;;;;;5.50;99.90;;;;;;5078201;28;19958;-59
2023/01/26 01:07:12;;;;;;;;;;;5.50;99.90;;;;;;5075123;28;19923;-60
2023/01/26 01:09:38;;;;;;;;;;;5.50;99.90;;;;;;5070382;28;20273;-64
2023/01/26 01:12:04;;;;;;;;;;;5.50;99.90;;;;;;5078558;28;19912;-57
2023/01/26 01:14:29;;;;;;;;;;;5.50;99.90;;;;;;5074698;28;20004;-56
2023/01/26 01:16:55;;;;;;;;;;;5.50;99.90;;;;;;5076745;28;19927;-63
2023/01/26 01:19:20;;;;;;;;;;;5.50;99.90;;;;;;5076067;28;20405;-68
2023/01/26 01:21:46;;;;;;;;;;;5.50;99.90;;;;;;5077280;28;20030;-66
2023/01/26 01:24:12;;;;;;;;;;;5.50;99.90;;;;;;5076065;28;20589;-66
2023/01/26 01:26:38;;;;;;;;;;;5.60;99.90;;;;;;5077143;28;20436;-61
2023/01/26 01:29:03;;;;;;;;;;;5.50;99.90;;;;;;5076869;28;20296;-64
2023/01/26 01:31:29;;;;;;;;;;;5.50;99.90;;;;;;5074321;28;19915;-66
2023/01/26 01:33:55;;;;;;;;;;;5.50;99.90;;;;;;5076117;28;19916;-67
2023/01/26 01:36:21;;;;;;;;;;;5.50;99.90;;;;;;5077756;28;19944;-64
2023/01/26 01:38:46;;;;;;;;;;;5.50;99.90;;;;;;5076559;28;20003;-61
2023/01/26 01:41:13;;;;;;;;;;;5.50;99.90;;;;;;5076673;28;19916;-62
2023/01/26 01:43:39;;;;;;;;;;;5.50;99.90;;;;;;5080732;28;19919;-62
2023/01/26 01:46:10;;;;;;;;;;;5.50;99.90;;;;;;5080243;28;19916;-61
2023/01/26 01:48:36;;;;;;;;;;;5.50;99.90;;;;;;5081660;28;19974;-65
2023/01/26 01:51:04;;;;;;;;;;;5.50;99.90;;;;;;5078987;28;19955;-63
2023/01/26 01:53:36;;;;;;;;;;;5.40;99.90;;;;;;5080635;28;19931;-65
2023/01/26 01:56:08;;;;;;;;;;;5.40;99.90;;;;;;5081024;28;19924;-65
2023/01/26 01:58:36;;;;;;;;;;;5.40;99.90;;;;;;5092189;28;19916;-62
2023/01/26 02:01:01;;;;;;;;;;;5.40;99.90;;;;;;5089844;28;19919;-65
2023/01/26 02:03:28;;;;;;;;;;;5.40;99.90;;;;;;5083219;28;20286;-66
2023/01/26 02:06:00;;;;;;;;;;;5.40;99.90;;;;;;5080657;28;19913;-64
2023/01/26 02:08:28;;;;;;;;;;;5.40;99.90;;;;;;5078402;28;19932;-69
2023/01/26 02:10:55;;;;;;;;;;;5.40;99.90;;;;;;5077721;28;19927;-66
2023/01/26 02:13:21;;;;;;;;;;;5.40;99.90;;;;;;5080540;28;19977;-67
2023/01/26 02:15:47;;;;;;;;;;;5.40;99.90;;;;;;5075041;28;19962;-64
2023/01/26 02:18:12;;;;;;;;;;;5.30;99.90;;;;;;5082958;28;19955;-63
2023/01/26 02:20:41;;;;;;;;;;;5.30;99.90;;;;;;5087306;28;19912;-66
2023/01/26 02:23:06;;;;;;;;;;;5.40;99.90;;;;;;5086578;28;20324;-63
2023/01/26 02:25:35;;;;;;;;;;;5.40;99.90;;;;;;5079468;28;19912;-68
2023/01/26 02:28:00;;;;;;;;;;;5.40;99.90;;;;;;5081094;28;19997;-64
2023/01/26 02:30:27;;;;;;;;;;;5.40;99.90;;;;;;5092948;28;20353;-63
2023/01/26 02:32:53;;;;;;;;;;;5.40;99.90;;;;;;5089183;28;19912;-63
2023/01/26 02:35:18;;;;;;;;;;;5.40;99.90;;;;;;5077053;28;19969;-65
2023/01/26 02:37:44;;;;;;;;;;;5.40;99.90;;;;;;5071379;28;19913;-64
2023/01/26 02:40:14;;;;;;;;;;;5.40;99.90;;;;;;5085323;28;19912;-65
2023/01/26 02:42:43;;;;;;;;;;;5.30;99.90;;;;;;5088933;28;19916;-59
2023/01/26 02:45:11;;;;;;;;;;;5.40;99.90;;;;;;5092260;28;19916;-65
2023/01/26 02:47:36;;;;;;;;;;;5.40;99.90;;;;;;5092089;28;19967;-64
2023/01/26 02:50:02;;;;;;;;;;;5.40;99.90;;;;;;5080399;28;20021;-61
2023/01/26 02:52:32;;;;;;;;;;;5.40;99.90;;;;;;5072310;28;19908;-66
2023/01/26 02:57:42;;;;;;;;;;;5.30;99.90;;;;;;5072333;28;19935;-62
2023/01/26 03:00:15;;;;;;;;;;;5.40;99.90;;;;;;5079077;28;19933;-64
2023/01/26 03:02:41;;;;;;;;;;;5.30;99.90;;;;;;5079710;28;19919;-64
2023/01/26 03:05:07;;;;;;;;;;;5.30;99.90;;;;;;5077976;28;19924;-64
2023/01/26 03:07:32;;;;;;;;;;;5.30;99.90;;;;;;5078889;28;19916;-64
2023/01/26 03:09:58;;;;;;;;;;;5.30;99.90;;;;;;5074215;28;20053;-63
2023/01/26 03:12:24;;;;;;;;;;;5.30;99.90;;;;;;5078323;28;19913;-67
2023/01/26 03:17:34;;;;;;;;;;;5.20;99.90;;;;;;5077972;28;19981;-67
2023/01/26 03:28:12;;;;;;;;;;;5.20;99.90;;;;;;5078001;28;19993;-66
2023/01/26 03:30:38;;;;;;;;;;;5.20;99.90;;;;;;5074419;28;20370;-66
2023/01/26 03:33:04;;;;;;;;;;;5.20;99.90;;;;;;5079869;28;19924;-61
2023/01/26 03:35:31;;;;;;;;;;;5.20;99.90;;;;;;5091504;28;19920;-63
2023/01/26 03:37:57;;;;;;;;;;;5.20;99.90;;;;;;5088033;28;19912;-63
2023/01/26 03:56:51;;;;;;;;;;;5.10;99.90;;;;;;5079132;28;20103;-65
2023/01/26 03:59:19;;;;;;;;;;;5.10;99.90;;;;;;5075981;28;20073;-61
2023/01/26 04:09:58;;;;;;;;;;;5.00;99.90;;;;;;5077907;28;19923;-65
2023/01/26 04:12:24;;;;;;;;;;;5.10;99.90;;;;;;5073116;28;19920;-61
2023/01/26 04:23:02;;;;;;;;;;;5.10;99.90;;;;;;5077105;28;19958;-58
2023/01/26 04:25:28;;;;;;;;;;;5.00;99.90;;;;;;5076905;28;19919;-66
2023/01/26 04:27:53;;;;;;;;;;;5.00;99.90;;;;;;5076489;28;19916;-65
2023/01/26 04:30:19;;;;;;;;;;;5.00;99.90;;;;;;5084226;28;20305;-63
2023/01/26 04:32:45;;;;;;;;;;;5.00;99.90;;;;;;5089562;28;19912;-62
2023/01/26 04:35:10;;;;;;;;;;;5.00;99.90;;;;;;5074234;28;19912;-66
2023/01/26 04:37:36;;;;;;;;;;;5.00;99.90;;;;;;5074177;28;20384;-65
2023/01/26 04:40:03;;;;;;;;;;;5.00;99.90;;;;;;5075906;28;19991;-64
2023/01/26 04:42:28;;;;;;;;;;;5.00;99.90;;;;;;5074507;28;20011;-66
2023/01/26 04:44:54;;;;;;;;;;;4.90;99.90;;;;;;5073469;28;20011;-66
2023/01/26 04:47:20;;;;;;;;;;;5.00;99.90;;;;;;5076220;28;20032;-63
2023/01/26 04:49:45;;;;;;;;;;;5.00;99.90;;;;;;5075871;28;19965;-66
2023/01/26 04:52:11;;;;;;;;;;;4.90;99.90;;;;;;5074684;28;19924;-64
2023/01/26 04:54:37;;;;;;;;;;;4.90;99.90;;;;;;5085369;28;19973;-62
2023/01/26 04:57:03;;;;;;;;;;;4.80;99.90;;;;;;5090935;28;19956;-67
2023/01/26 04:59:28;;;;;;;;;;;4.80;99.90;;;;;;5093843;28;19908;-57
2023/01/26 05:01:54;;;;;;;;;;;4.90;99.90;;;;;;5087710;28;19912;-63
2023/01/26 05:04:20;;;;;;;;;;;4.80;99.90;;;;;;5081898;28;19965;-64
2023/01/26 05:06:46;;;;;;;;;;;4.80;99.90;;;;;;5084685;28;20006;-63
2023/01/26 05:09:11;;;;;;;;;;;4.80;99.90;;;;;;5090306;28;20374;-62
2023/01/26 05:11:37;;;;;;;;;;;4.80;99.90;;;;;;5079553;28;20615;-65
2023/01/26 05:14:03;;;;;;;;;;;4.80;99.90;;;;;;5073149;28;20432;-63
2023/01/26 05:16:28;;;;;;;;;;;4.80;99.90;;;;;;5076154;28;20015;-64
2023/01/26 05:18:54;;;;;;;;;;;4.80;99.90;;;;;;5076780;28;20392;-68
2023/01/26 05:21:21;;;;;;;;;;;4.80;99.90;;;;;;5080044;28;19989;-67
2023/01/26 05:23:46;;;;;;;;;;;4.80;99.90;;;;;;5078396;28;19921;-58
2023/01/26 05:26:12;;;;;;;;;;;4.70;99.90;;;;;;5076465;28;19919;-64
2023/01/26 05:28:38;;;;;;;;;;;4.70;99.90;;;;;;5075318;28;19916;-65
2023/01/26 05:31:03;;;;;;;;;;;4.70;99.90;;;;;;5077690;28;19920;-63
2023/01/26 05:33:29;;;;;;;;;;;4.70;99.90;;;;;;5076111;28;20461;-64
2023/01/26 05:35:55;;;;;;;;;;;4.70;99.90;;;;;;5077154;28;19920;-63
2023/01/26 05:38:21;;;;;;;;;;;4.70;99.90;;;;;;5075313;28;19913;-65
2023/01/26 05:40:46;;;;;;;;;;;4.60;99.90;;;;;;5075540;28;19995;-65
2023/01/26 05:43:12;;;;;;;;;;;4.70;99.90;;;;;;5076339;28;20290;-61
2023/01/26 05:45:38;;;;;;;;;;;4.70;99.90;;;;;;5074063;28;19913;-68
2023/01/26 05:48:04;;;;;;;;;;;4.70;99.90;;;;;;5076679;28;19916;-65
2023/01/26 05:50:30;;;;;;;;;;;4.70;99.90;;;;;;5075785;28;19934;-65
2023/01/26 05:52:56;;;;;;;;;;;4.70;99.90;;;;;;5075328;28;19921;-63
2023/01/26 05:55:21;;;;;;;;;;;4.70;99.90;;;;;;5071355;28;19962;-67
2023/01/26 05:57:47;;;;;;;;;;;4.70;99.90;;;;;;5072424;28;19980;-65
2023/01/26 06:00:13;;;;;;;;;;;4.70;99.90;;;;;;5077563;28;19912;-64
2023/01/26 06:02:38;;;;;;;;;;;4.70;99.90;;;;;;5076261;28;19912;-65
2023/01/26 06:05:04;;;;;;;;;;;4.70;99.90;;;;;;5075646;28;19912;-65
2023/01/26 06:07:30;;;;;;;;;;;4.70;99.90;;;;;;5074640;28;20293;-65
2023/01/26 06:09:56;;;;;;;;;;;4.70;99.90;;;;;;5076116;28;19920;-66
2023/01/26 06:12:22;;;;;;;;;;;4.70;99.90;;;;;;5072522;28;19918;-67
2023/01/26 06:14:47;;;;;;;;;;;4.70;99.90;;;;;;5070304;28;20566;-63
2023/01/26 06:17:13;;;;;;;;;;;4.70;99.90;;;;;;5075844;28;20291;-60
2023/01/26 06:19:39;;;;;;;;;;;4.70;99.90;;;;;;5079493;28;19911;-60
2023/01/26 06:22:08;;;;;;;;;;;4.70;99.90;;;;;;5075947;28;20489;-65
2023/01/26 06:24:34;;;;;;;;;;;4.70;99.90;;;;;;5078296;28;19926;-62
2023/01/26 06:27:00;;;;;;;;;;;4.60;99.90;;;;;;5078003;28;19920;-67
2023/01/26 06:29:26;;;;;;;;;;;4.70;99.90;;;;;;5086199;28;19924;-65
2023/01/26 06:31:52;;;;;;;;;;;4.70;99.90;;;;;;5092545;28;20332;-66
2023/01/26 06:34:18;;;;;;;;;;;4.60;99.90;;;;;;5092266;28;19909;-64
2023/01/26 06:36:43;;;;;;;;;;;4.60;99.90;;;;;;5092588;28;19908;-64
2023/01/26 06:39:10;;;;;;;;;;;4.60;99.90;;;;;;5093599;28;19969;-66
2023/01/26 06:41:35;;;;;;;;;;;4.70;99.90;;;;;;5092106;28;20003;-65
2023/01/26 06:44:01;;;;;;;;;;;4.70;99.90;;;;;;5082693;28;20004;-66
2023/01/26 06:46:27;;;;;;;;;;;4.70;99.90;;;;;;5079985;28;19912;-65
2023/01/26 06:48:52;;;;;;;;;;;4.70;99.90;;;;;;5089207;28;20454;-65
2023/01/26 06:51:18;;;;;;;;;;;4.70;99.90;;;;;;5081729;28;19947;-69
2023/01/26 06:53:47;;;;;;;;;;;4.70;99.90;;;;;;5080953;28;19916;-66
2023/01/26 06:56:13;;;;;;;;;;;4.60;99.90;;;;;;5080599;28;19912;-64
2023/01/26 06:58:39;;;;;;;;;;;4.70;99.90;;;;;;5081407;28;19913;-64
2023/01/26 07:01:04;;;;;;;;;;;4.70;99.90;;;;;;5077786;28;19913;-60
2023/01/26 07:03:30;;;;;;;;;;;4.80;99.90;;;;;;5084512;28;20010;-64
2023/01/26 07:05:56;;;;;;;;;;;4.70;99.90;;;;;;5082102;28;19920;-63
2023/01/26 07:08:22;;;;;;;;;;;4.70;99.90;;;;;;5080258;28;20335;-65
2023/01/26 07:10:50;;;;;;;;;;;4.80;99.90;;;;;;5081756;28;19912;-62
2023/01/26 07:13:16;;;;;;;;;;;4.90;99.90;;;;;;5076849;28;19939;-64
2023/01/26 07:15:41;;;;;;;;;;;5.00;99.90;;;;;;5077880;28;20134;-64
2023/01/26 07:18:07;;;;;;;;;;;5.00;99.90;;;;;;5080554;28;19919;-62
2023/01/26 07:20:32;;;;;;;;;;;5.00;99.90;;;;;;5077974;28;19915;-64
2023/01/26 07:22:59;;;;;;;;;;;4.90;99.90;;;;;;5076494;28;19919;-63
2023/01/26 07:25:25;;;;;;;;;;;4.90;99.90;;;;;;5078479;28;20005;-65
2023/01/26 07:27:58;;;;;;;;;;;4.90;99.90;;;;;;5081797;28;19919;-63
2023/01/26 07:30:23;;;;;;;;;;;4.90;99.90;;;;;;5078464;28;19924;-63
2023/01/26 07:32:49;;;;;;;;;;;4.90;99.90;;;;;;5084301;28;20073;-64
2023/01/26 07:35:15;;;;;;;;;;;5.00;99.90;;;;;;5092322;28;19920;-65
2023/01/26 07:37:40;;;;;;;;;;;5.00;99.90;;;;;;5080303;28;20320;-64
2023/01/26 07:40:06;;;;;;;;;;;5.00;99.90;;;;;;5099762;28;19918;-64
2023/01/26 07:42:32;;;;;;;;;;;5.00;99.90;;;;;;5084815;28;20349;-63
2023/01/26 07:44:58;;;;;;;;;;;5.00;99.90;;;;;;5082837;28;19912;-63
2023/01/26 07:47:24;;;;;;;;;;;5.00;99.90;;;;;;5089914;28;20319;-61
2023/01/26 07:49:50;;;;;;;;;;;5.00;99.90;;;;;;5083801;28;19916;-64
2023/01/26 07:52:15;;;;;;;;;;;5.00;99.90;;;;;;5079931;28;19923;-64
2023/01/26 07:54:41;;;;;;;;;;;5.10;99.90;;;;;;5086528;28;19912;-63
2023/01/26 07:57:07;;;;;;;;;;;5.10;99.90;;;;;;5082842;28;19926;-63
2023/01/26 07:59:32;;;;;;;;;;;5.10;99.90;;;;;;5086540;28;19958;-64
2023/01/26 08:01:58;;;;;;;;;;;5.20;99.90;;;;;;5089440;28;19913;-64
2023/01/26 08:04:24;;;;;;;;;;;5.20;99.90;;;;;;5086503;28;21102;-64
2023/01/26 08:06:50;;;;;;;;;;;5.20;99.90;;;;;;5086821;28;20036;-65
2023/01/26 08:09:16;;;;;;;;;;;5.30;99.90;;;;;;5091154;28;20227;-61
2023/01/26 08:11:41;;;;;;;;;;;5.30;99.90;;;;;;5090484;28;19912;-64
2023/01/26 08:14:07;;;;;;;;;;;5.30;99.90;;;;;;5083738;28;19919;-65
2023/01/26 08:16:32;;;;;;;;;;;5.40;99.90;;;;;;5079365;28;20442;-63
2023/01/26 08:18:58;;;;;;;;;;;5.40;99.90;;;;;;5086810;28;20047;-64
2023/01/26 08:21:23;;;;;;;;;;;5.40;99.90;;;;;;5087159;28;19947;-64
2023/01/26 08:23:50;;;;;;;;;;;5.50;99.90;;;;;;5085701;28;19912;-64
2023/01/26 08:26:18;;;;;;;;;;;5.40;99.90;;;;;;5090144;28;20377;-65
2023/01/26 08:28:44;;;;;;;;;;;5.40;99.90;;;;;;5091391;28;20318;-64
2023/01/26 08:31:12;;;;;;;;;;;5.50;99.90;;;;;;5088222;28;19912;-65
2023/01/26 08:33:38;;;;;;;;;;;5.40;99.90;;;;;;5089447;28;19955;-63
2023/01/26 08:36:05;;;;;;;;;;;5.40;99.90;;;;;;5089766;28;19908;-64
2023/01/26 08:38:31;;;;;;;;;;;5.50;99.90;;;;;;5090316;28;19931;-64
2023/01/26 08:40:57;;;;;;;;;;;5.60;99.90;;;;;;5091057;28;20644;-64
2023/01/26 08:43:22;;;;;;;;;;;5.60;99.90;;;;;;5091193;28;19914;-65
2023/01/26 08:45:48;;;;;;;;;;;5.70;99.90;;;;;;5088671;28;20388;-65
2023/01/26 08:48:13;;;;;;;;;;;5.70;99.90;;;;;;5090753;28;20423;-61
2023/01/26 08:50:39;;;;;;;;;;;5.80;99.90;;;;;;5089859;28;19912;-64
2023/01/26 08:53:05;;;;;;;;;;;5.70;99.90;;;;;;5091103;28;19917;-64
2023/01/26 08:55:31;;;;;;;;;;;5.60;99.90;;;;;;5089778;28;19912;-65
2023/01/26 08:57:57;;;;;;;;;;;5.50;99.90;;;;;;5091066;28;20308;-64
2023/01/26 09:00:23;;;;;;;;;;;5.50;99.90;;;;;;5084079;28;19922;-65
2023/01/26 09:02:49;;;;;;;;;;;5.60;99.90;;;;;;5087474;28;20389;-65
2023/01/26 09:05:14;;;;;;;;;;;5.60;99.90;;;;;;5083062;28;19958;-61
2023/01/26 09:07:40;;;;;;;;;;;5.50;99.90;;;;;;5088719;28;20387;-63
2023/01/26 09:10:06;;;;;;;;;;;5.50;99.90;;;;;;5087175;28;19965;-64
2023/01/26 09:12:31;;;;;;;;;;;5.50;99.90;;;;;;5086066;28;19943;-64
2023/01/26 09:14:57;;;;;;;;;;;5.60;99.90;;;;;;5084989;28;19976;-66
2023/01/26 09:17:22;;;;;;;;;;;5.60;99.90;;;;;;5085084;28;20316;-62
2023/01/26 09:19:48;;;;;;;;;;;5.60;99.90;;;;;;5087656;28;19908;-65
2023/01/26 09:22:14;;;;;;;;;;;5.50;99.90;;;;;;5087472;28;19974;-63
2023/01/26 09:24:39;;;;;;;;;;;5.60;99.90;;;;;;5090830;28;19915;-62
2023/01/26 09:27:05;;;;;;;;;;;5.70;99.90;;;;;;5090783;28;19919;-59
2023/01/26 09:29:30;;;;;;;;;;;5.70;99.90;;;;;;5090394;28;20440;-63
2023/01/26 09:31:56;;;;;;;;;;;5.80;99.90;;;;;;5091889;28;19913;-65
2023/01/26 09:34:24;;;;;;;;;;;5.70;99.90;;;;;;5089795;28;19912;-65
2023/01/26 09:36:49;;;;;;;;;;;5.70;99.90;;;;;;5082840;28;20006;-64
2023/01/26 09:39:15;;;;;;;;;;;5.70;99.90;;;;;;5080010;28;20002;-62
2023/01/26 09:41:44;;;;;;;;;;;5.70;99.90;;;;;;5095325;28;19919;-62
2023/01/26 09:44:14;;;;;;;;;;;5.70;99.90;;;;;;5096582;28;20390;-64
2023/01/26 09:46:55;;;;;;;;;;;5.70;99.90;;;;;;5090434;28;19939;-64
2023/01/26 09:49:24;;;;;;;;;;;5.70;99.90;;;;;;5090560;28;20317;-64
2023/01/26 09:52:01;;;;;;;;;;;5.80;99.90;;;;;;5081765;28;19918;-64
2023/01/26 09:54:33;;;;;;;;;;;5.80;99.90;;;;;;5090486;28;20006;-65
2023/01/26 09:57:01;;;;;;;;;;;5.80;99.90;;;;;;5086162;28;19912;-62
2023/01/26 09:59:50;;;;;;;;;;;6.00;99.90;;;;;;5088578;28;20284;-65
2023/01/26 10:02:18;;;;;;;;;;;5.90;99.90;;;;;;5090792;28;19955;-64
2023/01/26 10:04:46;;;;;;;;;;;5.90;99.90;;;;;;5093467;28;19916;-59
2023/01/26 10:07:13;;;;;;;;;;;6.00;99.90;;;;;;5098777;28;19965;-61
2023/01/26 10:09:40;;;;;;;;;;;5.90;99.90;;;;;;5093703;28;19939;-64
2023/01/26 10:12:07;;;;;;;;;;;5.90;99.90;;;;;;5092881;28;19920;-66
2023/01/26 10:14:36;;;;;;;;;;;5.90;99.90;;;;;;5092519;28;19912;-64
2023/01/26 10:17:03;;;;;;;;;;;5.90;99.90;;;;;;5086507;28;19915;-66
2023/01/26 10:19:39;;;;;;;;;;;5.90;99.90;;;;;;5090934;28;19916;-65
2023/01/26 10:22:09;;;;;;;;;;;5.90;99.90;;;;;;5087787;28;20000;-64
2023/01/26 10:24:35;;;;;;;;;;;6.00;99.90;;;;;;5086302;28;19974;-62
2023/01/26 10:27:00;;;;;;;;;;;5.90;99.90;;;;;;5091525;28;19916;-66
2023/01/26 10:29:26;;;;;;;;;;;6.00;99.90;;;;;;5093499;28;20018;-65
2023/01/26 10:31:51;;;;;;;;;;;6.00;99.90;;;;;;5086768;28;19947;-64
2023/01/26 10:34:26;;;;;;;;;;;6.00;99.90;;;;;;5087361;28;20293;-64
2023/01/26 10:36:55;;;;;;;;;;;6.10;99.90;;;;;;5084148;28;20449;-66
2023/01/26 10:39:21;;;;;;;;;;;6.20;99.90;;;;;;5093947;28;19908;-65
2023/01/26 10:42:00;;;;;;;;;;;6.20;99.90;;;;;;5087794;28;19912;-66
2023/01/26 10:44:25;;;;;;;;;;;6.10;99.90;;;;;;5088929;28;19928;-62
2023/01/26 10:47:02;;;;;;;;;;;6.20;99.90;;;;;;5085653;28;19908;-65
2023/01/26 10:49:28;;;;;;;;;;;6.20;99.90;;;;;;5089243;28;19977;-66
2023/01/26 10:52:05;;;;;;;;;;;6.10;99.90;;;;;;5091989;28;20281;-62
2023/01/26 10:54:34;;;;;;;;;;;6.00;99.90;;;;;;5091450;28;20318;-66
2023/01/26 10:57:06;;;;;;;;;;;6.10;99.90;;;;;;5083724;28;19919;-65
2023/01/26 10:59:49;;;;;;;;;;;6.10;99.90;;;;;;5088096;28;20110;-65
2023/01/26 11:02:15;;;;;;;;;;;6.20;99.90;;;;;;5087279;28;19912;-68
2023/01/26 11:04:59;;;;;;;;;;;6.40;99.90;;;;;;5092664;28;20308;-65
2023/01/26 11:07:26;;;;;;;;;;;6.30;99.90;;;;;;5090494;28;19923;-64
2023/01/26 11:09:53;;;;;;;;;;;6.30;99.90;;;;;;5087099;28;19916;-64
2023/01/26 11:12:19;;;;;;;;;;;6.30;99.90;;;;;;5088375;28;19920;-65
2023/01/26 11:14:58;;;;;;;;;;;6.30;99.90;;;;;;5089816;28;19921;-65
2023/01/26 11:17:25;;;;;;;;;;;6.20;99.90;;;;;;5086796;28;19913;-66
2023/01/26 11:19:55;;;;;;;;;;;6.20;99.90;;;;;;5089227;28;19912;-64
2023/01/26 11:22:36;;;;;;;;;;;6.30;99.90;;;;;;5090489;28;19920;-65
2023/01/26 11:25:01;;;;;;;;;;;6.20;99.90;;;;;;5091424;28;19947;-66
2023/01/26 11:27:34;;;;;;;;;;;6.40;99.90;;;;;;5081607;28;19954;-65
2023/01/26 11:30:18;;;;;;;;;;;6.50;99.90;;;;;;5091330;28;20371;-62
2023/01/26 11:32:50;;;;;;;;;;;6.70;99.90;;;;;;5079338;28;20012;-66
2023/01/26 11:35:34;;;;;;;;;;;6.60;99.90;;;;;;5074632;28;20370;-64
2023/01/26 11:38:03;;;;;;;;;;;6.50;99.90;;;;;;5083677;28;19916;-65
2023/01/26 11:40:31;;;;;;;;;;;6.30;99.90;;;;;;5085888;28;19921;-64
2023/01/26 11:43:07;;;;;;;;;;;6.30;99.90;;;;;;5084807;28;20031;-65
2023/01/26 11:45:41;;;;;;;;;;;6.30;99.90;;;;;;5086554;28;19912;-66
2023/01/26 11:48:27;;;;;;;;;;;6.20;99.90;;;;;;5091115;28;19924;-65
2023/01/26 11:50:59;;;;;;;;;;;6.10;99.90;;;;;;5070566;28;19916;-64
2023/01/26 11:53:27;;;;;;;;;;;6.20;99.90;;;;;;5091193;28;19919;-66
2023/01/26 11:55:53;;;;;;;;;;;6.20;99.90;;;;;;5086577;28;19920;-63
2023/01/26 11:58:31;;;;;;;;;;;6.30;99.90;;;;;;5078759;28;19916;-66
2023/01/26 12:00:58;;;;;;;;;;;6.30;99.90;;;;;;5079841;28;19947;-66
2023/01/26 12:03:32;;;;;;;;;;;6.30;99.90;;;;;;5088987;28;19912;-63
2023/01/26 12:06:01;;;;;;;;;;;6.30;99.90;;;;;;5076243;28;20011;-64
2023/01/26 12:08:27;;;;;;;;;;;6.20;99.90;;;;;;5086959;28;20030;-64
2023/01/26 12:11:21;;;;;;;;;;;6.20;99.90;;;;;;5079207;28;19958;-67
2023/01/26 12:13:46;;;;;;;;;;;6.10;99.90;;;;;;5082468;28;19916;-64
2023/01/26 12:16:32;;;;;;;;;;;6.30;99.90;;;;;;5075759;28;19963;-63
2023/01/26 12:19:07;;;;;;;;;;;6.20;99.90;;;;;;5084385;28;19913;-64
2023/01/26 12:21:34;;;;;;;;;;;6.10;99.90;;;;;;5077487;28;19912;-64
2023/01/26 12:24:01;;;;;;;;;;;6.20;99.90;;;;;;5076392;28;19951;-63
2023/01/26 12:26:30;;;;;;;;;;;6.00;99.90;;;;;;5083575;28;20018;-65
2023/01/26 12:29:11;;;;;;;;;;;6.00;99.90;;;;;;5082899;28;20558;-66
2023/01/26 12:31:52;;;;;;;;;;;5.90;99.90;;;;;;5086097;28;20435;-66
2023/01/26 12:34:21;;;;;;;;;;;5.90;99.90;;;;;;5091491;28;19908;-65
2023/01/26 12:36:49;;;;;;;;;;;5.90;99.90;;;;;;5079061;28;19965;-66
2023/01/26 12:39:21;;;;;;;;;;;6.00;99.90;;;;;;5088630;28;20315;-66
2023/01/26 12:41:49;;;;;;;;;;;6.10;99.90;;;;;;5085973;28;20720;-65
2023/01/26 12:44:24;;;;;;;;;;;6.10;99.90;;;;;;5079805;28;19999;-65
2023/01/26 12:47:05;;;;;;;;;;;6.10;99.90;;;;;;5078593;28;19918;-66
2023/01/26 12:49:33;;;;;;;;;;;6.00;99.90;;;;;;5079866;28;20346;-64
2023/01/26 12:52:05;;;;;;;;;;;6.10;99.90;;;;;;5086257;28;20342;-64
2023/01/26 12:54:49;;;;;;;;;;;6.10;99.90;;;;;;5088349;28;19947;-64
2023/01/26 12:57:17;;;;;;;;;;;6.20;99.90;;;;;;5089035;28;20393;-64
2023/01/26 12:59:43;;;;;;;;;;;6.20;99.90;;;;;;5081884;28;19912;-63
2023/01/26 13:02:29;;;;;;;;;;;6.10;99.90;;;;;;5075780;28;20015;-66
2023/01/26 13:04:55;;;;;;;;;;;6.10;99.90;;;;;;5083492;28;19923;-64
2023/01/26 13:07:35;;;;;;;;;;;6.00;99.90;;;;;;5083343;28;19956;-65
2023/01/26 13:10:18;;;;;;;;;;;6.20;99.90;;;;;;5080971;28;19935;-64
2023/01/26 13:12:46;;;;;;;;;;;6.20;99.90;;;;;;5073147;28;19927;-66
2023/01/26 13:15:13;;;;;;;;;;;6.20;99.90;;;;;;5070148;28;19992;-63
2023/01/26 13:17:40;;;;;;;;;;;6.20;99.90;;;;;;5082848;28;19919;-64
2023/01/26 13:20:21;;;;;;;;;;;6.20;99.90;;;;;;5085191;28;19938;-63
2023/01/26 13:22:47;;;;;;;;;;;6.30;99.90;;;;;;5085300;28;19908;-63
2023/01/26 13:25:17;;;;;;;;;;;6.50;99.90;;;;;;5085362;28;19927;-67
2023/01/26 13:27:45;;;;;;;;;;;6.50;99.90;;;;;;5088939;28;19908;-65
2023/01/26 13:30:26;;;;;;;;;;;6.50;99.90;;;;;;5082941;28;19928;-65
2023/01/26 13:32:53;;;;;;;;;;;6.50;99.90;;;;;;5090479;28;20515;-65
2023/01/26 13:35:20;;;;;;;;;;;6.50;99.90;;;;;;5089186;28;20479;-65
2023/01/26 13:37:58;;;;;;;;;;;6.60;99.90;;;;;;5085735;28;20070;-63
2023/01/26 13:40:31;;;;;;;;;;;6.70;99.90;;;;;;5078279;28;19949;-66
2023/01/26 13:43:26;;;;;;;;;;;6.50;99.90;;;;;;5088145;28;20405;-65
2023/01/26 13:45:54;;;;;;;;;;;6.40;99.90;;;;;;5029573;28;20290;-67
2023/01/26 13:48:35;;;;;;;;;;;6.40;99.90;;;;;;5089633;28;20286;-68
2023/01/26 13:51:01;;;;;;;;;;;6.20;99.90;;;;;;5087302;28;19916;-66
2023/01/26 13:53:42;;;;;;;;;;;6.20;99.90;;;;;;5077128;28;19909;-62
2023/01/26 13:56:25;;;;;;;;;;;6.10;99.90;;;;;;5084417;28;19913;-65
2023/01/26 13:58:54;;;;;;;;;;;6.00;99.90;;;;;;5079555;28;19915;-65
2023/01/26 14:01:20;;;;;;;;;;;6.00;99.90;;;;;;5087241;28;20029;-67
2023/01/26 14:03:45;;;;;;;;;;;5.90;99.90;;;;;;5083441;28;19934;-65
2023/01/26 14:06:14;;;;;;;;;;;5.90;99.90;;;;;;5084381;28;20328;-64
2023/01/26 14:08:42;;;;;;;;;;;6.00;99.90;;;;;;5084561;28;20041;-64
2023/01/26 14:11:16;;;;;;;;;;;6.00;99.90;;;;;;5089487;28;19912;-65
2023/01/26 14:13:42;;;;;;;;;;;6.00;99.90;;;;;;5075048;28;20305;-65
2023/01/26 14:16:18;;;;;;;;;;;6.00;99.90;;;;;;5082266;28;20432;-63
2023/01/26 14:18:46;;;;;;;;;;;6.10;99.90;;;;;;5071769;28;19925;-63
2023/01/26 14:21:17;;;;;;;;;;;6.20;99.90;;;;;;5082803;28;19916;-62
2023/01/26 14:23:42;;;;;;;;;;;6.10;99.90;;;;;;5090281;28;19961;-65
2023/01/26 14:26:29;;;;;;;;;;;6.00;99.90;;;;;;5089160;28;19917;-65
2023/01/26 14:28:54;;;;;;;;;;;6.00;99.90;;;;;;5086266;28;19923;-66
2023/01/26 14:31:24;;;;;;;;;;;6.00;99.90;;;;;;5079662;28;19995;-64
2023/01/26 14:33:52;;;;;;;;;;;6.10;99.90;;;;;;5082788;28;19916;-66
2023/01/26 14:36:19;;;;;;;;;;;6.00;99.90;;;;;;5090475;28;19908;-65
2023/01/26 14:38:45;;;;;;;;;;;6.10;99.90;;;;;;5090407;28;19984;-65
2023/01/26 14:41:21;;;;;;;;;;;6.10;99.90;;;;;;5091714;28;19908;-65
2023/01/26 14:43:51;;;;;;;;;;;6.20;99.90;;;;;;5069736;28;19912;-67
2023/01/26 14:46:21;;;;;;;;;;;6.10;99.90;;;;;;5095736;28;20474;-67
2023/01/26 14:48:50;;;;;;;;;;;6.10;99.90;;;;;;5097470;28;19915;-65
2023/01/26 14:51:26;;;;;;;;;;;6.10;99.90;;;;;;5091653;28;19916;-65
2023/01/26 14:53:56;;;;;;;;;;;6.10;99.90;;;;;;5091916;28;20531;-66
2023/01/26 14:56:31;;;;;;;;;;;5.90;99.90;;;;;;5090083;28;19919;-63
2023/01/26 14:58:57;;;;;;;;;;;5.90;99.90;;;;;;5090927;28;19999;-65
2023/01/26 15:01:24;;;;;;;;;;;5.90;99.90;;;;;;5092346;28;19912;-65
2023/01/26 15:03:55;;;;;;;;;;;5.90;99.90;;;;;;5085131;28;20519;-66
2023/01/26 15:06:24;;;;;;;;;;;5.90;99.90;;;;;;5091361;28;19913;-65
2023/01/26 15:08:53;;;;;;;;;;;5.80;99.90;;;;;;5090454;28;19923;-66
2023/01/26 15:14:22;;;;;;;;;;;5.70;99.90;;;;;;5090478;28;20303;-67
2023/01/26 15:16:52;;;;;;;;;;;5.60;99.90;;;;;;5087033;28;19912;-67
2023/01/26 15:19:24;;;;;;;;;;;5.70;99.90;;;;;;5078877;28;19917;-65
2023/01/26 15:21:50;;;;;;;;;;;5.60;99.90;;;;;;5091669;28;19912;-65
2023/01/26 15:24:16;;;;;;;;;;;5.60;99.90;;;;;;5080787;28;19916;-66
2023/01/26 15:26:42;;;;;;;;;;;5.60;99.90;;;;;;5085591;28;19993;-65